createdAt,value
2023-02-08T00:01:21.365Z,102749.20
2023-02-08T00:03:49.427Z,102748.77
2023-02-08T00:06:17.897Z,102750.98
2023-02-08T00:08:46.277Z,102754.73
2023-02-08T00:11:14.100Z,102761.75
2023-02-08T00:13:42.747Z,102768.27
2023-02-08T00:16:12.705Z,102763.15
2023-02-08T00:18:41.618Z,102762.01
2023-02-08T00:21:11.523Z,102764.58
2023-02-08T00:23:39.429Z,102766.63
2023-02-08T00:26:07.756Z,102770.54
2023-02-08T00:28:36.195Z,102771.59
2023-02-08T00:31:04.697Z,102773.59
2023-02-08T00:33:32.804Z,102771.20
2023-02-08T00:36:02.366Z,102771.80
2023-02-08T00:38:31.867Z,102774.30
2023-02-08T00:40:59.665Z,102773.63
2023-02-08T00:43:27.552Z,102768.92
2023-02-08T00:45:59.458Z,102769.55
2023-02-08T00:48:28.522Z,102769.44
2023-02-08T00:51:02.424Z,102768.01
2023-02-08T00:53:30.621Z,102767.44
2023-02-08T00:55:58.410Z,102765.57
2023-02-08T00:58:27.650Z,102765.77
2023-02-08T01:00:56.564Z,102767.19
2023-02-08T01:03:24.804Z,102765.36
2023-02-08T01:05:53.506Z,102763.36
2023-02-08T01:08:22.029Z,102761.84
2023-02-08T01:10:50.148Z,102765.53
2023-02-08T01:13:17.921Z,102764.32
2023-02-08T01:15:46.742Z,102761.92
2023-02-08T01:18:14.565Z,102759.76
2023-02-08T01:20:42.807Z,102757.27
2023-02-08T01:23:10.562Z,102756.73
2023-02-08T01:25:38.376Z,102753.64
2023-02-08T01:28:06.560Z,102758.25
2023-02-08T01:30:34.391Z,102760.09
2023-02-08T01:33:02.198Z,102761.23
2023-02-08T01:35:30.225Z,102759.56
2023-02-08T01:37:58.548Z,102761.66
2023-02-08T01:40:26.346Z,102765.67
2023-02-08T01:42:54.055Z,102763.37
2023-02-08T01:45:26.206Z,102767.02
2023-02-08T01:48:01.092Z,102765.52
2023-02-08T01:50:34.558Z,102767.46
2023-02-08T01:53:04.121Z,102766.70
2023-02-08T01:55:38.527Z,102767.35
2023-02-08T01:58:09.754Z,102769.63
2023-02-08T02:00:37.568Z,102768.73
2023-02-08T02:03:06.734Z,102770.89
2023-02-08T02:05:41.279Z,102771.05
2023-02-08T02:08:11.004Z,102765.89
2023-02-08T02:10:40.944Z,102773.20
2023-02-08T02:13:16.533Z,102765.55
2023-02-08T02:15:45.340Z,102766.19
2023-02-08T02:18:24.530Z,102764.64
2023-02-08T02:21:24.159Z,102766.00
2023-02-08T02:23:58.059Z,102769.90
2023-02-08T02:26:57.697Z,102772.02
2023-02-08T02:29:39.054Z,102769.40
2023-02-08T02:32:29.368Z,102772.22
2023-02-08T02:35:08.112Z,102771.64
2023-02-08T02:38:06.713Z,102773.40
2023-02-08T02:40:50.410Z,102777.04
2023-02-08T02:43:38.440Z,102777.98
2023-02-08T02:46:25.443Z,102785.17
2023-02-08T02:48:59.058Z,102786.02
2023-02-08T02:51:44.477Z,102790.60
2023-02-08T02:54:24.086Z,102793.65
2023-02-08T02:56:59.940Z,102790.08
2023-02-08T02:59:28.881Z,102790.70
2023-02-08T03:01:57.752Z,102791.84
2023-02-08T03:04:41.450Z,102795.02
2023-02-08T03:07:38.302Z,102796.38
2023-02-08T03:10:21.931Z,102791.84
2023-02-08T03:13:20.473Z,102794.22
2023-02-08T03:16:20.597Z,102795.92
2023-02-08T03:19:10.230Z,102800.55
2023-02-08T03:21:47.187Z,102802.13
2023-02-08T03:24:38.809Z,102802.02
2023-02-08T03:27:15.419Z,102804.08
2023-02-08T03:30:02.503Z,102810.86
2023-02-08T03:32:55.990Z,102812.80
2023-02-08T03:35:45.850Z,102810.70
2023-02-08T03:38:21.146Z,102806.89
2023-02-08T03:40:53.591Z,102808.34
2023-02-08T03:43:33.244Z,102812.65
2023-02-08T03:46:21.116Z,102814.12
2023-02-08T03:48:57.122Z,102814.14
2023-02-08T03:51:28.381Z,102818.05
2023-02-08T03:53:58.679Z,102814.95
2023-02-08T03:56:48.338Z,102815.64
2023-02-08T03:59:27.553Z,102816.83
2023-02-08T04:01:59.963Z,102813.14
2023-02-08T04:04:32.610Z,102815.23
2023-02-08T04:07:00.510Z,102817.05
2023-02-08T04:09:28.369Z,102822.60
2023-02-08T04:11:56.295Z,102822.20
2023-02-08T04:14:24.073Z,102824.83
2023-02-08T04:16:52.051Z,102824.09
2023-02-08T04:19:19.865Z,102828.67
2023-02-08T04:21:47.635Z,102831.75
2023-02-08T04:24:15.420Z,102836.42
2023-02-08T04:26:43.232Z,102832.99
2023-02-08T04:29:10.964Z,102833.80
2023-02-08T04:31:38.890Z,102838.16
2023-02-08T04:34:06.975Z,102836.92
2023-02-08T04:36:34.803Z,102830.45
2023-02-08T04:39:03.087Z,102833.14
2023-02-08T04:41:30.856Z,102830.30
2023-02-08T04:43:58.656Z,102833.78
2023-02-08T04:46:26.468Z,102831.99
2023-02-08T04:48:54.304Z,102830.71
2023-02-08T04:51:22.104Z,102833.73
2023-02-08T04:53:49.834Z,102829.89
2023-02-08T04:56:17.611Z,102827.38
2023-02-08T04:58:45.397Z,102824.30
2023-02-08T05:01:13.354Z,102829.50
2023-02-08T05:03:41.184Z,102834.14
2023-02-08T05:06:08.998Z,102835.56
2023-02-08T05:08:36.818Z,102833.92
2023-02-08T05:11:04.738Z,102835.67
2023-02-08T05:13:32.600Z,102836.48
2023-02-08T05:16:00.436Z,102834.02
2023-02-08T05:18:29.441Z,102835.48
2023-02-08T05:21:01.246Z,102835.75
2023-02-08T05:23:29.161Z,102839.10
2023-02-08T05:25:56.927Z,102839.83
2023-02-08T05:28:25.234Z,102842.21
2023-02-08T05:30:52.985Z,102848.93
2023-02-08T05:33:20.797Z,102854.40
2023-02-08T05:35:48.603Z,102855.66
2023-02-08T05:38:16.364Z,102855.30
2023-02-08T05:40:44.051Z,102851.71
2023-02-08T05:43:11.805Z,102852.27
2023-02-08T05:45:39.566Z,102853.83
2023-02-08T05:48:07.326Z,102861.31
2023-02-08T05:50:35.148Z,102860.77
2023-02-08T05:53:02.915Z,102861.71
2023-02-08T05:55:30.661Z,102864.05
2023-02-08T05:57:58.406Z,102859.36
2023-02-08T06:00:26.216Z,102858.96
2023-02-08T06:02:54.189Z,102858.39
2023-02-08T06:05:22.043Z,102860.23
2023-02-08T06:07:49.802Z,102856.83
2023-02-08T06:10:17.716Z,102863.02
2023-02-08T06:12:45.444Z,102862.42
2023-02-08T06:15:13.499Z,102863.06
2023-02-08T06:17:41.262Z,102867.82
2023-02-08T06:20:10.112Z,102876.38
2023-02-08T06:22:38.048Z,102879.64
2023-02-08T06:25:06.448Z,102885.55
2023-02-08T06:27:34.258Z,102885.65
2023-02-08T06:30:02.388Z,102891.09
2023-02-08T06:32:30.310Z,102886.79
2023-02-08T06:34:58.284Z,102888.19
2023-02-08T06:37:26.048Z,102884.59
2023-02-08T06:39:53.824Z,102885.11
2023-02-08T06:42:22.737Z,102888.89
2023-02-08T06:44:55.103Z,102891.27
2023-02-08T06:47:24.607Z,102888.14
2023-02-08T06:49:53.131Z,102887.61
2023-02-08T06:52:21.811Z,102890.77
2023-02-08T06:54:49.612Z,102887.58
2023-02-08T06:57:17.423Z,102891.27
2023-02-08T06:59:45.483Z,102894.58
2023-02-08T07:02:15.258Z,102896.36
2023-02-08T07:04:43.920Z,102898.06
2023-02-08T07:07:14.096Z,102899.71
2023-02-08T07:09:42.598Z,102901.09
2023-02-08T07:12:11.861Z,102906.05
2023-02-08T07:14:42.119Z,102908.84
2023-02-08T07:17:11.341Z,102910.20
2023-02-08T07:19:40.121Z,102908.66
2023-02-08T07:22:08.466Z,102909.52
2023-02-08T07:24:41.210Z,102907.02
2023-02-08T07:27:11.592Z,102912.36
2023-02-08T07:29:40.053Z,102911.05
2023-02-08T07:32:08.743Z,102909.97
2023-02-08T07:34:38.131Z,102910.80
2023-02-08T07:37:06.052Z,102911.90
2023-02-08T07:39:34.071Z,102916.11
2023-02-08T07:42:01.828Z,102918.11
2023-02-08T07:44:30.977Z,102913.71
2023-02-08T07:46:58.765Z,102912.76
2023-02-08T07:49:26.516Z,102914.81
2023-02-08T07:51:54.316Z,102916.31
2023-02-08T07:54:22.069Z,102919.63
2023-02-08T07:56:50.031Z,102917.88
2023-02-08T07:59:17.895Z,102920.48
2023-02-08T08:01:45.777Z,102926.61
2023-02-08T08:04:14.048Z,102922.52
2023-02-08T08:06:41.874Z,102926.52
2023-02-08T08:09:09.698Z,102924.46
2023-02-08T08:12:12.782Z,102925.83
2023-02-08T08:14:40.503Z,102924.27
2023-02-08T08:17:08.738Z,102918.97
2023-02-08T08:19:36.518Z,102920.36
2023-02-08T08:22:04.440Z,102919.62
2023-02-08T08:24:35.520Z,102918.84
2023-02-08T08:27:07.477Z,102920.46
2023-02-08T08:29:37.114Z,102911.84
2023-02-08T08:32:05.113Z,102915.41
2023-02-08T08:34:32.861Z,102919.80
2023-02-08T08:37:02.231Z,102918.73
2023-02-08T08:39:30.053Z,102918.74
2023-02-08T08:42:01.210Z,102919.95
2023-02-08T08:44:28.947Z,102920.02
2023-02-08T08:46:57.869Z,102924.67
2023-02-08T08:49:27.061Z,102927.35
2023-02-08T08:51:55.954Z,102932.48
2023-02-08T08:54:24.090Z,102937.79
2023-02-08T08:56:52.012Z,102941.89
2023-02-08T08:59:19.857Z,102946.20
2023-02-08T09:01:47.818Z,102945.48
2023-02-08T09:04:15.804Z,102953.84
2023-02-08T09:06:43.602Z,102955.84
2023-02-08T09:09:11.802Z,102950.02
2023-02-08T09:11:39.601Z,102946.48
2023-02-08T09:14:07.783Z,102943.44
2023-02-08T09:16:35.618Z,102944.34
2023-02-08T09:19:08.542Z,102938.08
2023-02-08T09:21:36.857Z,102939.75
2023-02-08T09:24:04.837Z,102943.27
2023-02-08T09:26:33.061Z,102943.48
2023-02-08T09:29:01.014Z,102942.17
2023-02-08T09:31:32.215Z,102940.08
2023-02-08T09:34:01.051Z,102936.23
2023-02-08T09:36:33.284Z,102931.44
2023-02-08T09:39:07.381Z,102929.73
2023-02-08T09:41:58.545Z,102928.20
2023-02-08T09:44:40.433Z,102928.53
2023-02-08T09:47:30.381Z,102931.29
2023-02-08T09:50:10.082Z,102931.66
2023-02-08T09:52:45.487Z,102937.96
2023-02-08T09:55:36.738Z,102933.10
2023-02-08T09:58:17.455Z,102935.71
2023-02-08T10:00:48.074Z,102936.68
2023-02-08T10:03:37.123Z,102941.06
2023-02-08T10:06:07.739Z,102941.23
2023-02-08T10:08:36.641Z,102938.51
2023-02-08T10:11:27.707Z,102939.65
2023-02-08T10:14:01.389Z,102933.45
2023-02-08T10:17:01.452Z,102932.48
2023-02-08T10:19:54.841Z,102937.20
2023-02-08T10:22:35.390Z,102940.02
2023-02-08T10:25:19.030Z,102936.88
2023-02-08T10:28:06.435Z,102944.04
2023-02-08T10:30:50.248Z,102947.23
2023-02-08T10:33:20.532Z,102941.90
2023-02-08T10:35:50.821Z,102950.29
2023-02-08T10:38:44.121Z,102951.30
2023-02-08T10:41:20.215Z,102945.58
2023-02-08T10:44:20.203Z,102954.23
2023-02-08T10:46:55.108Z,102948.60
2023-02-08T10:49:39.950Z,102948.89
2023-02-08T10:52:07.932Z,102942.69
2023-02-08T10:54:35.661Z,102937.02
2023-02-08T10:57:12.884Z,102943.48
2023-02-08T11:00:03.831Z,102947.28
2023-02-08T11:02:38.772Z,102939.15
2023-02-08T11:05:15.882Z,102931.44
2023-02-08T11:07:43.778Z,102927.25
2023-02-08T11:10:27.696Z,102929.35
2023-02-08T11:13:01.193Z,102927.62
2023-02-08T11:15:45.248Z,102921.21
2023-02-08T11:18:27.576Z,102913.48
2023-02-08T11:20:58.712Z,102907.42
2023-02-08T11:23:31.238Z,102901.09
2023-02-08T11:26:15.331Z,102900.45
2023-02-08T11:28:44.362Z,102900.84
2023-02-08T11:31:20.641Z,102905.25
2023-02-08T11:34:05.576Z,102901.08
2023-02-08T11:36:35.561Z,102896.63
2023-02-08T11:39:17.307Z,102893.90
2023-02-08T11:41:47.706Z,102890.77
2023-02-08T11:44:28.232Z,102886.85
2023-02-08T11:47:00.351Z,102888.20
2023-02-08T11:49:51.433Z,102886.05
2023-02-08T11:52:35.494Z,102885.30
2023-02-08T11:55:19.372Z,102884.80
2023-02-08T11:58:18.983Z,102890.00
2023-02-08T12:01:16.681Z,102887.41
2023-02-08T12:03:47.846Z,102883.80
2023-02-08T12:06:47.588Z,102883.60
2023-02-08T12:09:21.233Z,102879.56
2023-02-08T12:11:50.451Z,102883.17
2023-02-08T12:14:22.322Z,102882.20
2023-02-08T12:16:53.393Z,102874.13
2023-02-08T12:19:43.232Z,102868.70
2023-02-08T12:22:18.894Z,102868.20
2023-02-08T12:24:46.637Z,102864.04
2023-02-08T12:27:27.546Z,102862.84
2023-02-08T12:30:29.530Z,102864.67
2023-02-08T12:33:24.798Z,102868.86
2023-02-08T12:36:17.032Z,102860.02
2023-02-08T12:39:19.007Z,102861.98
2023-02-08T12:41:56.285Z,102865.84
2023-02-08T12:44:48.588Z,102867.17
2023-02-08T12:48:03.073Z,102869.35
2023-02-08T12:50:50.740Z,102871.52
2023-02-08T12:53:31.145Z,102866.17
2023-02-08T12:56:06.720Z,102864.80
2023-02-08T12:58:45.622Z,102860.29
2023-02-08T13:01:21.752Z,102863.63
2023-02-08T13:04:27.479Z,102858.42
2023-02-08T13:07:27.917Z,102860.45
2023-02-08T13:10:04.457Z,102862.50
2023-02-08T13:12:43.846Z,102858.64
2023-02-08T13:15:44.970Z,102846.79
2023-02-08T13:18:16.522Z,102844.87
2023-02-08T13:21:03.080Z,102839.91
2023-02-08T13:23:50.561Z,102839.39
2023-02-08T13:26:27.917Z,102841.27
2023-02-08T13:29:01.004Z,102840.02
2023-02-08T13:31:41.909Z,102837.91
2023-02-08T13:34:40.635Z,102834.59
2023-02-08T13:37:27.934Z,102837.10
2023-02-08T13:40:28.430Z,102832.49
2023-02-08T13:43:09.096Z,102829.77
2023-02-08T13:45:43.399Z,102830.86
2023-02-08T13:48:14.819Z,102825.48
2023-02-08T13:50:50.577Z,102821.57
2023-02-08T13:53:35.355Z,102819.27
2023-02-08T13:56:05.828Z,102827.23
2023-02-08T13:58:50.339Z,102822.84
2023-02-08T14:01:30.318Z,102824.46
2023-02-08T14:04:14.145Z,102819.45
2023-02-08T14:06:41.873Z,102816.45
2023-02-08T14:09:32.274Z,102813.64
2023-02-08T14:12:13.924Z,102815.27
2023-02-08T14:14:41.759Z,102815.52
2023-02-08T14:17:19.322Z,102815.17
2023-02-08T14:19:57.867Z,102811.10
2023-02-08T14:22:36.516Z,102807.92
2023-02-08T14:25:24.706Z,102804.51
2023-02-08T14:27:56.950Z,102802.83
2023-02-08T14:30:31.360Z,102804.71
2023-02-08T14:33:07.283Z,102804.88
2023-02-08T14:35:39.213Z,102801.59
2023-02-08T14:38:23.010Z,102796.36
2023-02-08T14:40:53.484Z,102793.45
2023-02-08T14:43:37.193Z,102793.28
2023-02-08T14:46:36.992Z,102788.48
2023-02-08T14:49:15.749Z,102779.25
2023-02-08T14:51:59.075Z,102780.08
2023-02-08T14:54:48.577Z,102780.84
2023-02-08T14:57:28.845Z,102777.66
2023-02-08T14:59:59.780Z,102769.79
2023-02-08T15:02:32.559Z,102766.27
2023-02-08T15:05:09.427Z,102755.23
2023-02-08T15:07:53.515Z,102754.09
2023-02-08T15:10:22.508Z,102762.86
2023-02-08T15:12:54.004Z,102762.13
2023-02-08T15:15:41.494Z,102756.52
2023-02-08T15:18:23.108Z,102758.92
2023-02-08T15:20:58.579Z,102760.02
2023-02-08T15:23:26.458Z,102761.95
2023-02-08T15:25:56.643Z,102767.38
2023-02-08T15:28:28.897Z,102775.48
2023-02-08T15:31:00.814Z,102777.34
2023-02-08T15:33:28.852Z,102777.05
2023-02-08T15:36:06.536Z,102780.47
2023-02-08T15:38:38.677Z,102778.98
2023-02-08T15:41:10.066Z,102775.86
2023-02-08T15:43:39.592Z,102779.35
2023-02-08T15:46:25.778Z,102776.73
2023-02-08T15:48:56.685Z,102774.64
2023-02-08T15:51:27.340Z,102770.42
2023-02-08T15:53:56.720Z,102771.69
2023-02-08T15:56:37.827Z,102774.29
2023-02-08T15:59:16.143Z,102775.86
2023-02-08T16:01:47.821Z,102777.80
2023-02-08T16:04:16.053Z,102778.21
2023-02-08T16:06:51.693Z,102785.29
2023-02-08T16:09:25.033Z,102784.52
2023-02-08T16:11:56.528Z,102783.34
2023-02-08T16:14:28.871Z,102784.43
2023-02-08T16:16:58.707Z,102780.17
2023-02-08T16:19:31.866Z,102781.20
2023-02-08T16:22:22.535Z,102778.67
2023-02-08T16:24:50.877Z,102782.83
2023-02-08T16:27:18.769Z,102784.15
2023-02-08T16:29:47.640Z,102784.92
2023-02-08T16:32:28.134Z,102784.39
2023-02-08T16:34:56.333Z,102780.05
2023-02-08T16:37:35.037Z,102779.06
2023-02-08T16:40:30.748Z,102779.84
2023-02-08T16:43:18.084Z,102777.64
2023-02-08T16:45:46.549Z,102777.61
2023-02-08T16:48:34.881Z,102776.09
2023-02-08T16:51:05.455Z,102774.62
2023-02-08T16:53:41.905Z,102772.84
2023-02-08T16:56:11.452Z,102779.00
2023-02-08T16:58:39.932Z,102769.38
2023-02-08T17:01:12.327Z,102766.10
2023-02-08T17:03:41.192Z,102762.80
2023-02-08T17:06:21.907Z,102766.38
2023-02-08T17:08:49.707Z,102767.12
2023-02-08T17:11:17.572Z,102760.06
2023-02-08T17:13:45.396Z,102763.11
2023-02-08T17:16:19.301Z,102759.98
2023-02-08T17:18:48.439Z,102760.61
2023-02-08T17:21:17.192Z,102759.25
2023-02-08T17:23:45.978Z,102755.77
2023-02-08T17:26:13.722Z,102751.46
2023-02-08T17:28:42.853Z,102753.23
2023-02-08T17:31:14.687Z,102754.49
2023-02-08T17:33:43.293Z,102757.48
2023-02-08T17:36:13.505Z,102756.73
2023-02-08T17:38:43.143Z,102756.58
2023-02-08T17:41:19.980Z,102756.39
2023-02-08T17:43:52.344Z,102763.10
2023-02-08T17:46:26.132Z,102755.20
2023-02-08T17:48:54.482Z,102755.56
2023-02-08T17:51:24.250Z,102751.40
2023-02-08T17:53:52.218Z,102752.16
2023-02-08T17:56:22.922Z,102748.17
2023-02-08T17:58:53.961Z,102752.20
2023-02-08T18:01:26.890Z,102746.38
2023-02-08T18:03:55.107Z,102745.09
2023-02-08T18:06:25.990Z,102746.91
2023-02-08T18:08:54.889Z,102741.91
2023-02-08T18:11:23.860Z,102741.53
2023-02-08T18:13:53.671Z,102741.38
2023-02-08T18:16:24.090Z,102739.06
2023-02-08T18:18:55.977Z,102734.23
2023-02-08T18:21:32.728Z,102736.02
2023-02-08T18:24:04.966Z,102729.27
2023-02-08T18:26:34.421Z,102724.34
2023-02-08T18:29:03.118Z,102722.05
2023-02-08T18:31:31.745Z,102719.70
2023-02-08T18:33:59.649Z,102719.51
2023-02-08T18:36:27.424Z,102721.71
2023-02-08T18:38:56.822Z,102724.37
2023-02-08T18:41:27.759Z,102720.43
2023-02-08T18:43:57.140Z,102717.95
2023-02-08T18:46:27.105Z,102711.23
2023-02-08T18:48:55.330Z,102713.33
2023-02-08T18:51:24.492Z,102716.61
2023-02-08T18:53:54.380Z,102715.62
2023-02-08T18:56:25.079Z,102713.05
2023-02-08T18:58:54.569Z,102709.98
2023-02-08T19:01:24.276Z,102708.04
2023-02-08T19:03:53.154Z,102705.74
2023-02-08T19:06:24.870Z,102704.63
2023-02-08T19:08:55.859Z,102696.56
2023-02-08T19:11:24.834Z,102693.45
2023-02-08T19:13:55.283Z,102694.81
2023-02-08T19:16:24.724Z,102694.98
2023-02-08T19:18:53.193Z,102690.56
2023-02-08T19:21:21.032Z,102688.61
2023-02-08T19:23:53.923Z,102686.50
2023-02-08T19:26:26.325Z,102685.86
2023-02-08T19:28:58.003Z,102682.41
2023-02-08T19:31:28.082Z,102681.62
2023-02-08T19:33:58.805Z,102678.52
2023-02-08T19:36:29.623Z,102674.40
2023-02-08T19:38:58.363Z,102672.69
2023-02-08T19:41:31.078Z,102669.17
2023-02-08T19:44:00.339Z,102666.44
2023-02-08T19:46:28.358Z,102664.19
2023-02-08T19:49:00.157Z,102657.34
2023-02-08T19:51:32.021Z,102657.52
2023-02-08T19:54:00.839Z,102657.08
2023-02-08T19:56:33.853Z,102651.92
2023-02-08T19:59:06.451Z,102650.40
2023-02-08T20:01:35.444Z,102650.38
2023-02-08T20:04:05.678Z,102651.45
2023-02-08T20:06:36.933Z,102648.60
2023-02-08T20:09:06.688Z,102649.57
2023-02-08T20:11:45.046Z,102655.23
2023-02-08T20:14:23.654Z,102655.66
2023-02-08T20:16:51.500Z,102651.71
2023-02-08T20:19:19.363Z,102649.00
2023-02-08T20:21:47.261Z,102643.44
2023-02-08T20:24:15.549Z,102642.80
2023-02-08T20:26:45.550Z,102640.32
2023-02-08T20:29:14.640Z,102636.97
2023-02-08T20:31:44.927Z,102633.48
2023-02-08T20:34:16.181Z,102630.09
2023-02-08T20:37:05.375Z,102628.97
2023-02-08T20:39:35.831Z,102631.00
2023-02-08T20:42:04.203Z,102628.05
2023-02-08T20:44:32.138Z,102626.95
2023-02-08T20:47:00.129Z,102627.34
2023-02-08T20:49:29.219Z,102622.81
2023-02-08T20:51:56.991Z,102621.31
2023-02-08T20:54:25.085Z,102616.55
2023-02-08T20:56:53.396Z,102609.02
2023-02-08T20:59:21.698Z,102611.45
2023-02-08T21:01:49.685Z,102609.41
2023-02-08T21:04:18.024Z,102612.19
2023-02-08T21:06:46.270Z,102609.77
2023-02-08T21:09:17.310Z,102604.59
2023-02-08T21:11:47.246Z,102599.65
2023-02-08T21:14:20.839Z,102603.55
2023-02-08T21:16:51.753Z,102599.74
2023-02-08T21:19:20.862Z,102599.13
2023-02-08T21:21:53.975Z,102595.67
2023-02-08T21:24:23.929Z,102589.59
2023-02-08T21:26:53.788Z,102592.34
2023-02-08T21:29:22.657Z,102593.23
2023-02-08T21:31:53.554Z,102597.91
2023-02-08T21:34:21.767Z,102601.45
2023-02-08T21:36:49.622Z,102599.14
2023-02-08T21:39:17.409Z,102593.96
2023-02-08T21:41:45.305Z,102589.94
2023-02-08T21:44:13.171Z,102588.04
2023-02-08T21:46:41.005Z,102582.13
2023-02-08T21:49:25.963Z,102583.94
2023-02-08T21:52:09.662Z,102579.98
2023-02-08T21:54:46.524Z,102581.61
2023-02-08T21:57:18.942Z,102578.25
2023-02-08T21:59:49.193Z,102571.81
2023-02-08T22:02:25.586Z,102569.56
2023-02-08T22:05:10.566Z,102563.36
2023-02-08T22:07:54.148Z,102562.40
2023-02-08T22:10:27.728Z,102552.96
2023-02-08T22:12:57.203Z,102546.78
2023-02-08T22:15:29.103Z,102544.27
2023-02-08T22:18:00.289Z,102546.21
2023-02-08T22:20:29.673Z,102544.36
2023-02-08T22:22:57.779Z,102547.27
2023-02-08T22:25:25.601Z,102544.99
2023-02-08T22:27:53.454Z,102540.49
2023-02-08T22:30:24.411Z,102535.59
2023-02-08T22:32:53.378Z,102534.45
2023-02-08T22:35:21.432Z,102529.64
2023-02-08T22:37:49.273Z,102528.98
2023-02-08T22:40:17.307Z,102520.83
2023-02-08T22:42:45.181Z,102520.44
2023-02-08T22:45:13.288Z,102520.75
2023-02-08T22:47:41.155Z,102517.70
2023-02-08T22:50:10.045Z,102523.16
2023-02-08T22:52:37.919Z,102521.23
2023-02-08T22:55:06.403Z,102520.30
2023-02-08T22:57:35.871Z,102520.20
2023-02-08T23:00:06.973Z,102521.86
2023-02-08T23:02:34.956Z,102518.38
2023-02-08T23:05:02.897Z,102515.36
2023-02-08T23:07:30.693Z,102511.91
2023-02-08T23:09:58.498Z,102507.74
2023-02-08T23:12:26.360Z,102506.52
2023-02-08T23:14:54.086Z,102501.63
2023-02-08T23:17:21.948Z,102498.41
2023-02-08T23:19:52.444Z,102501.27
2023-02-08T23:22:20.330Z,102500.95
2023-02-08T23:24:48.213Z,102500.15
2023-02-08T23:27:16.024Z,102502.24
2023-02-08T23:29:43.854Z,102498.88
2023-02-08T23:32:11.705Z,102500.23
2023-02-08T23:34:39.616Z,102501.50
2023-02-08T23:37:07.472Z,102503.27
2023-02-08T23:39:35.283Z,102499.99
2023-02-08T23:42:03.142Z,102505.27
2023-02-08T23:44:30.950Z,102501.58
2023-02-08T23:46:58.878Z,102503.36
2023-02-08T23:49:26.794Z,102501.15
2023-02-08T23:51:55.186Z,102493.35
2023-02-08T23:54:23.454Z,102487.54
2023-02-08T23:56:52.015Z,102482.77
2023-02-08T23:59:19.854Z,102477.77
